sensor_id;sensor_type;location;lat;lon;timestamp;P1;durP1;ratioP1;P2;durP2;ratioP2
75614;SDS011;64199;48.578;-4.520;2023-05-19T00:00:21;3.08;;;1.30;;
75614;SDS011;64199;48.578;-4.520;2023-05-19T00:02:48;1.95;;;1.30;;
75614;SDS011;64199;48.578;-4.520;2023-05-19T00:05:15;1.52;;;1.42;;
75614;SDS011;64199;48.578;-4.520;2023-05-19T00:07:42;7.72;;;1.73;;
75614;SDS011;64199;48.578;-4.520;2023-05-19T00:10:10;3.03;;;1.20;;
75614;SDS011;64199;48.578;-4.520;2023-05-19T00:12:37;2.15;;;1.50;;
75614;SDS011;64199;48.578;-4.520;2023-05-19T00:15:03;2.85;;;1.60;;
75614;SDS011;64199;48.578;-4.520;2023-05-19T00:17:29;1.65;;;1.30;;
75614;SDS011;64199;48.578;-4.520;2023-05-19T00:19:55;2.72;;;1.48;;
75614;SDS011;64199;48.578;-4.520;2023-05-19T00:22:21;2.08;;;1.10;;
75614;SDS011;64199;48.578;-4.520;2023-05-19T00:24:48;1.30;;;1.20;;
75614;SDS011;64199;48.578;-4.520;2023-05-19T00:27:14;2.90;;;1.63;;
75614;SDS011;64199;48.578;-4.520;2023-05-19T00:29:40;1.58;;;1.20;;
75614;SDS011;64199;48.578;-4.520;2023-05-19T00:32:07;1.48;;;1.38;;
75614;SDS011;64199;48.578;-4.520;2023-05-19T00:34:34;2.88;;;1.38;;
75614;SDS011;64199;48.578;-4.520;2023-05-19T00:37:00;1.75;;;1.63;;
75614;SDS011;64199;48.578;-4.520;2023-05-19T00:39:26;2.15;;;1.33;;
75614;SDS011;64199;48.578;-4.520;2023-05-19T00:41:52;1.42;;;1.30;;
75614;SDS011;64199;48.578;-4.520;2023-05-19T00:44:17;2.30;;;1.40;;
75614;SDS011;64199;48.578;-4.520;2023-05-19T00:46:43;2.10;;;1.38;;
75614;SDS011;64199;48.578;-4.520;2023-05-19T00:49:09;3.58;;;1.20;;
75614;SDS011;64199;48.578;-4.520;2023-05-19T00:51:35;2.30;;;1.77;;
75614;SDS011;64199;48.578;-4.520;2023-05-19T00:54:01;1.95;;;1.50;;
75614;SDS011;64199;48.578;-4.520;2023-05-19T00:56:28;1.65;;;1.20;;
75614;SDS011;64199;48.578;-4.520;2023-05-19T00:58:55;2.47;;;1.48;;
75614;SDS011;64199;48.578;-4.520;2023-05-19T01:01:21;1.88;;;1.60;;
75614;SDS011;64199;48.578;-4.520;2023-05-19T01:03:47;1.75;;;1.27;;
75614;SDS011;64199;48.578;-4.520;2023-05-19T01:06:13;1.30;;;1.20;;
75614;SDS011;64199;48.578;-4.520;2023-05-19T01:08:39;1.98;;;1.40;;
75614;SDS011;64199;48.578;-4.520;2023-05-19T01:11:06;1.27;;;1.17;;
75614;SDS011;64199;48.578;-4.520;2023-05-19T01:13:33;1.40;;;1.30;;
75614;SDS011;64199;48.578;-4.520;2023-05-19T01:16:01;2.72;;;1.30;;
75614;SDS011;64199;48.578;-4.520;2023-05-19T01:21:51;1.27;;;1.05;;
75614;SDS011;64199;48.578;-4.520;2023-05-19T01:31:03;1.38;;;1.25;;
75614;SDS011;64199;48.578;-4.520;2023-05-19T01:33:31;2.97;;;1.10;;
75614;SDS011;64199;48.578;-4.520;2023-05-19T01:35:58;2.72;;;1.15;;
75614;SDS011;64199;48.578;-4.520;2023-05-19T01:38:27;3.45;;;1.20;;
75614;SDS011;64199;48.578;-4.520;2023-05-19T01:40:55;2.40;;;1.25;;
75614;SDS011;64199;48.578;-4.520;2023-05-19T01:43:23;1.45;;;1.17;;
75614;SDS011;64199;48.578;-4.520;2023-05-19T01:45:50;3.20;;;1.20;;
75614;SDS011;64199;48.578;-4.520;2023-05-19T01:48:17;1.48;;;1.20;;
75614;SDS011;64199;48.578;-4.520;2023-05-19T01:50:43;2.10;;;1.30;;
75614;SDS011;64199;48.578;-4.520;2023-05-19T01:53:10;2.58;;;1.00;;
75614;SDS011;64199;48.578;-4.520;2023-05-19T01:55:42;1.20;;;1.10;;
75614;SDS011;64199;48.578;-4.520;2023-05-19T01:58:10;4.25;;;0.85;;
75614;SDS011;64199;48.578;-4.520;2023-05-19T02:00:52;3.50;;;1.20;;
75614;SDS011;64199;48.578;-4.520;2023-05-19T02:03:47;3.28;;;1.30;;
75614;SDS011;64199;48.578;-4.520;2023-05-19T02:06:29;1.70;;;1.05;;
75614;SDS011;64199;48.578;-4.520;2023-05-19T02:09:24;3.28;;;0.90;;
75614;SDS011;64199;48.578;-4.520;2023-05-19T02:11:54;2.25;;;1.02;;
75614;SDS011;64199;48.578;-4.520;2023-05-19T02:14:52;3.50;;;0.90;;
75614;SDS011;64199;48.578;-4.520;2023-05-19T02:17:33;1.70;;;1.05;;
75614;SDS011;64199;48.578;-4.520;2023-05-19T02:20:04;1.38;;;1.10;;
75614;SDS011;64199;48.578;-4.520;2023-05-19T02:22:32;0.80;;;0.80;;
75614;SDS011;64199;48.578;-4.520;2023-05-19T02:24:58;3.77;;;1.00;;
75614;SDS011;64199;48.578;-4.520;2023-05-19T02:27:24;1.25;;;1.13;;
75614;SDS011;64199;48.578;-4.520;2023-05-19T02:29:51;1.15;;;1.05;;
75614;SDS011;64199;48.578;-4.520;2023-05-19T02:32:17;1.25;;;1.10;;
75614;SDS011;64199;48.578;-4.520;2023-05-19T02:34:43;1.33;;;1.00;;
75614;SDS011;64199;48.578;-4.520;2023-05-19T02:37:13;2.05;;;1.10;;
75614;SDS011;64199;48.578;-4.520;2023-05-19T02:39:40;1.52;;;1.13;;
75614;SDS011;64199;48.578;-4.520;2023-05-19T02:42:06;1.20;;;0.90;;
75614;SDS011;64199;48.578;-4.520;2023-05-19T02:44:32;2.00;;;1.20;;
75614;SDS011;64199;48.578;-4.520;2023-05-19T02:46:58;0.80;;;0.80;;
75614;SDS011;64199;48.578;-4.520;2023-05-19T02:49:24;1.17;;;0.90;;
75614;SDS011;64199;48.578;-4.520;2023-05-19T02:51:50;3.28;;;1.05;;
75614;SDS011;64199;48.578;-4.520;2023-05-19T02:54:16;1.17;;;0.80;;
75614;SDS011;64199;48.578;-4.520;2023-05-19T02:56:42;1.08;;;0.90;;
75614;SDS011;64199;48.578;-4.520;2023-05-19T02:59:08;0.90;;;0.90;;
75614;SDS011;64199;48.578;-4.520;2023-05-19T03:01:34;1.13;;;1.00;;
75614;SDS011;64199;48.578;-4.520;2023-05-19T03:04:01;1.30;;;1.00;;
75614;SDS011;64199;48.578;-4.520;2023-05-19T03:06:27;2.03;;;0.90;;
75614;SDS011;64199;48.578;-4.520;2023-05-19T03:08:53;1.00;;;0.90;;
75614;SDS011;64199;48.578;-4.520;2023-05-19T03:11:19;1.70;;;1.00;;
75614;SDS011;64199;48.578;-4.520;2023-05-19T03:13:47;1.10;;;1.00;;
75614;SDS011;64199;48.578;-4.520;2023-05-19T03:16:13;2.13;;;0.98;;
75614;SDS011;64199;48.578;-4.520;2023-05-19T03:18:39;1.27;;;0.90;;
75614;SDS011;64199;48.578;-4.520;2023-05-19T03:21:05;1.25;;;0.88;;
75614;SDS011;64199;48.578;-4.520;2023-05-19T03:23:31;0.93;;;0.90;;
75614;SDS011;64199;48.578;-4.520;2023-05-19T03:25:57;3.28;;;0.95;;
75614;SDS011;64199;48.578;-4.520;2023-05-19T03:28:23;1.45;;;0.85;;
75614;SDS011;64199;48.578;-4.520;2023-05-19T03:30:51;1.97;;;1.17;;
75614;SDS011;64199;48.578;-4.520;2023-05-19T03:33:17;2.05;;;1.10;;
75614;SDS011;64199;48.578;-4.520;2023-05-19T03:35:43;0.80;;;0.80;;
75614;SDS011;64199;48.578;-4.520;2023-05-19T03:38:09;1.08;;;0.82;;
75614;SDS011;64199;48.578;-4.520;2023-05-19T03:40:35;1.15;;;0.90;;
75614;SDS011;64199;48.578;-4.520;2023-05-19T03:43:01;1.13;;;1.00;;
75614;SDS011;64199;48.578;-4.520;2023-05-19T03:45:27;0.75;;;0.75;;
75614;SDS011;64199;48.578;-4.520;2023-05-19T03:47:53;1.58;;;0.90;;
75614;SDS011;64199;48.578;-4.520;2023-05-19T03:50:19;0.98;;;0.88;;
75614;SDS011;64199;48.578;-4.520;2023-05-19T03:52:45;0.80;;;0.80;;
75614;SDS011;64199;48.578;-4.520;2023-05-19T03:55:12;0.93;;;0.80;;
75614;SDS011;64199;48.578;-4.520;2023-05-19T03:57:39;0.90;;;0.73;;
75614;SDS011;64199;48.578;-4.520;2023-05-19T04:00:08;1.02;;;0.93;;
75614;SDS011;64199;48.578;-4.520;2023-05-19T04:02:35;2.58;;;1.00;;
75614;SDS011;64199;48.578;-4.520;2023-05-19T04:05:01;0.68;;;0.65;;
75614;SDS011;64199;48.578;-4.520;2023-05-19T04:07:29;1.15;;;1.00;;
75614;SDS011;64199;48.578;-4.520;2023-05-19T04:09:55;1.90;;;0.80;;
75614;SDS011;64199;48.578;-4.520;2023-05-19T04:12:21;3.75;;;1.00;;
75614;SDS011;64199;48.578;-4.520;2023-05-19T04:14:47;0.73;;;0.60;;
75614;SDS011;64199;48.578;-4.520;2023-05-19T04:17:13;1.05;;;0.68;;
75614;SDS011;64199;48.578;-4.520;2023-05-19T04:19:39;2.35;;;1.08;;
75614;SDS011;64199;48.578;-4.520;2023-05-19T04:22:05;0.50;;;0.45;;
75614;SDS011;64199;48.578;-4.520;2023-05-19T04:24:31;0.60;;;0.60;;
75614;SDS011;64199;48.578;-4.520;2023-05-19T04:26:58;1.27;;;1.00;;
75614;SDS011;64199;48.578;-4.520;2023-05-19T04:31:56;1.40;;;0.73;;
75614;SDS011;64199;48.578;-4.520;2023-05-19T04:34:22;0.70;;;0.70;;
75614;SDS011;64199;48.578;-4.520;2023-05-19T04:36:48;1.25;;;1.00;;
75614;SDS011;64199;48.578;-4.520;2023-05-19T04:39:14;0.80;;;0.80;;
75614;SDS011;64199;48.578;-4.520;2023-05-19T04:41:40;1.00;;;0.90;;
75614;SDS011;64199;48.578;-4.520;2023-05-19T04:44:08;0.88;;;0.70;;
75614;SDS011;64199;48.578;-4.520;2023-05-19T04:46:34;0.70;;;0.68;;
75614;SDS011;64199;48.578;-4.520;2023-05-19T04:49:00;0.70;;;0.70;;
75614;SDS011;64199;48.578;-4.520;2023-05-19T04:51:27;1.00;;;0.80;;
75614;SDS011;64199;48.578;-4.520;2023-05-19T04:53:55;0.93;;;0.70;;
75614;SDS011;64199;48.578;-4.520;2023-05-19T04:56:25;0.80;;;0.75;;
75614;SDS011;64199;48.578;-4.520;2023-05-19T04:58:52;0.75;;;0.65;;
75614;SDS011;64199;48.578;-4.520;2023-05-19T05:01:18;0.85;;;0.70;;
75614;SDS011;64199;48.578;-4.520;2023-05-19T05:03:49;1.10;;;0.70;;
75614;SDS011;64199;48.578;-4.520;2023-05-19T05:06:19;1.08;;;0.60;;
75614;SDS011;64199;48.578;-4.520;2023-05-19T05:08:46;0.93;;;0.70;;
75614;SDS011;64199;48.578;-4.520;2023-05-19T05:11:13;1.02;;;0.70;;
75614;SDS011;64199;48.578;-4.520;2023-05-19T05:13:39;0.70;;;0.70;;
75614;SDS011;64199;48.578;-4.520;2023-05-19T05:16:05;1.27;;;0.70;;
75614;SDS011;64199;48.578;-4.520;2023-05-19T05:18:32;1.25;;;0.73;;
75614;SDS011;64199;48.578;-4.520;2023-05-19T05:20:59;1.13;;;0.70;;
75614;SDS011;64199;48.578;-4.520;2023-05-19T05:23:25;0.45;;;0.45;;
75614;SDS011;64199;48.578;-4.520;2023-05-19T05:25:51;0.63;;;0.63;;
75614;SDS011;64199;48.578;-4.520;2023-05-19T05:28:17;0.80;;;0.70;;
75614;SDS011;64199;48.578;-4.520;2023-05-19T05:30:43;0.82;;;0.80;;
75614;SDS011;64199;48.578;-4.520;2023-05-19T05:33:10;0.65;;;0.50;;
75614;SDS011;64199;48.578;-4.520;2023-05-19T05:35:36;1.25;;;0.65;;
75614;SDS011;64199;48.578;-4.520;2023-05-19T05:38:02;0.82;;;0.73;;
75614;SDS011;64199;48.578;-4.520;2023-05-19T05:40:28;0.52;;;0.50;;
75614;SDS011;64199;48.578;-4.520;2023-05-19T05:42:55;2.38;;;0.80;;
75614;SDS011;64199;48.578;-4.520;2023-05-19T05:45:24;0.90;;;0.60;;
75614;SDS011;64199;48.578;-4.520;2023-05-19T05:47:50;0.77;;;0.70;;
75614;SDS011;64199;48.578;-4.520;2023-05-19T05:50:16;1.65;;;0.70;;
75614;SDS011;64199;48.578;-4.520;2023-05-19T05:52:46;0.63;;;0.60;;
75614;SDS011;64199;48.578;-4.520;2023-05-19T05:55:12;0.43;;;0.43;;
75614;SDS011;64199;48.578;-4.520;2023-05-19T05:57:39;1.08;;;0.75;;
75614;SDS011;64199;48.578;-4.520;2023-05-19T06:00:06;0.55;;;0.55;;
75614;SDS011;64199;48.578;-4.520;2023-05-19T06:02:43;0.98;;;0.90;;
75614;SDS011;64199;48.578;-4.520;2023-05-19T06:05:11;1.10;;;0.80;;
75614;SDS011;64199;48.578;-4.520;2023-05-19T06:07:38;1.00;;;0.60;;
75614;SDS011;64199;48.578;-4.520;2023-05-19T06:10:05;0.55;;;0.55;;
75614;SDS011;64199;48.578;-4.520;2023-05-19T06:12:31;0.73;;;0.60;;
75614;SDS011;64199;48.578;-4.520;2023-05-19T06:14:58;0.82;;;0.60;;
75614;SDS011;64199;48.578;-4.520;2023-05-19T06:17:24;0.52;;;0.52;;
75614;SDS011;64199;48.578;-4.520;2023-05-19T06:19:50;0.65;;;0.57;;
75614;SDS011;64199;48.578;-4.520;2023-05-19T06:22:16;1.17;;;0.68;;
75614;SDS011;64199;48.578;-4.520;2023-05-19T06:24:42;0.95;;;0.85;;
75614;SDS011;64199;48.578;-4.520;2023-05-19T06:27:08;1.52;;;0.95;;
75614;SDS011;64199;48.578;-4.520;2023-05-19T06:29:33;1.58;;;0.85;;
75614;SDS011;64199;48.578;-4.520;2023-05-19T06:31:59;0.60;;;0.60;;
75614;SDS011;64199;48.578;-4.520;2023-05-19T06:34:25;0.60;;;0.60;;
75614;SDS011;64199;48.578;-4.520;2023-05-19T06:36:52;0.60;;;0.60;;
75614;SDS011;64199;48.578;-4.520;2023-05-19T06:39:17;0.68;;;0.50;;
75614;SDS011;64199;48.578;-4.520;2023-05-19T06:41:43;0.93;;;0.70;;
75614;SDS011;64199;48.578;-4.520;2023-05-19T06:44:09;0.60;;;0.50;;
75614;SDS011;64199;48.578;-4.520;2023-05-19T06:46:35;2.17;;;0.68;;
75614;SDS011;64199;48.578;-4.520;2023-05-19T06:49:01;0.90;;;0.70;;
75614;SDS011;64199;48.578;-4.520;2023-05-19T06:51:27;0.50;;;0.50;;
75614;SDS011;64199;48.578;-4.520;2023-05-19T06:53:52;1.55;;;0.70;;
75614;SDS011;64199;48.578;-4.520;2023-05-19T06:56:18;1.20;;;0.60;;
75614;SDS011;64199;48.578;-4.520;2023-05-19T06:58:45;0.60;;;0.60;;
75614;SDS011;64199;48.578;-4.520;2023-05-19T07:01:11;0.68;;;0.60;;
75614;SDS011;64199;48.578;-4.520;2023-05-19T07:03:37;2.25;;;0.70;;
75614;SDS011;64199;48.578;-4.520;2023-05-19T07:06:03;1.63;;;0.52;;
75614;SDS011;64199;48.578;-4.520;2023-05-19T07:08:28;1.95;;;0.50;;
75614;SDS011;64199;48.578;-4.520;2023-05-19T07:10:54;1.13;;;0.70;;
75614;SDS011;64199;48.578;-4.520;2023-05-19T07:13:20;0.98;;;0.77;;
75614;SDS011;64199;48.578;-4.520;2023-05-19T07:15:46;5.05;;;0.70;;
75614;SDS011;64199;48.578;-4.520;2023-05-19T07:18:13;0.90;;;0.77;;
75614;SDS011;64199;48.578;-4.520;2023-05-19T07:20:39;1.17;;;0.70;;
75614;SDS011;64199;48.578;-4.520;2023-05-19T07:23:05;0.60;;;0.60;;
75614;SDS011;64199;48.578;-4.520;2023-05-19T07:25:31;0.82;;;0.80;;
75614;SDS011;64199;48.578;-4.520;2023-05-19T07:27:57;0.57;;;0.57;;
75614;SDS011;64199;48.578;-4.520;2023-05-19T07:30:23;1.13;;;0.70;;
75614;SDS011;64199;48.578;-4.520;2023-05-19T07:32:51;1.48;;;0.70;;
75614;SDS011;64199;48.578;-4.520;2023-05-19T07:35:18;1.40;;;0.63;;
75614;SDS011;64199;48.578;-4.520;2023-05-19T07:37:46;0.40;;;0.40;;
75614;SDS011;64199;48.578;-4.520;2023-05-19T07:40:13;1.58;;;0.63;;
75614;SDS011;64199;48.578;-4.520;2023-05-19T07:42:39;1.15;;;0.50;;
75614;SDS011;64199;48.578;-4.520;2023-05-19T07:45:05;2.55;;;0.50;;
75614;SDS011;64199;48.578;-4.520;2023-05-19T07:47:32;0.90;;;0.63;;
75614;SDS011;64199;48.578;-4.520;2023-05-19T07:49:57;0.70;;;0.70;;
75614;SDS011;64199;48.578;-4.520;2023-05-19T07:52:23;2.25;;;0.60;;
75614;SDS011;64199;48.578;-4.520;2023-05-19T07:54:49;1.42;;;0.70;;
75614;SDS011;64199;48.578;-4.520;2023-05-19T07:57:15;1.55;;;0.75;;
75614;SDS011;64199;48.578;-4.520;2023-05-19T07:59:43;1.60;;;0.90;;
75614;SDS011;64199;48.578;-4.520;2023-05-19T08:02:08;0.98;;;0.60;;
75614;SDS011;64199;48.578;-4.520;2023-05-19T08:04:34;2.35;;;0.52;;
75614;SDS011;64199;48.578;-4.520;2023-05-19T08:07:00;5.35;;;0.80;;
75614;SDS011;64199;48.578;-4.520;2023-05-19T08:09:26;0.73;;;0.70;;
75614;SDS011;64199;48.578;-4.520;2023-05-19T08:11:52;1.63;;;0.60;;
75614;SDS011;64199;48.578;-4.520;2023-05-19T08:14:18;1.10;;;0.70;;
75614;SDS011;64199;48.578;-4.520;2023-05-19T08:16:46;1.80;;;0.82;;
75614;SDS011;64199;48.578;-4.520;2023-05-19T08:19:12;0.75;;;0.60;;
75614;SDS011;64199;48.578;-4.520;2023-05-19T08:21:38;1.00;;;0.70;;
75614;SDS011;64199;48.578;-4.520;2023-05-19T08:24:06;1.20;;;0.83;;
75614;SDS011;64199;48.578;-4.520;2023-05-19T08:26:32;1.15;;;0.80;;
75614;SDS011;64199;48.578;-4.520;2023-05-19T08:28:58;1.05;;;0.60;;
75614;SDS011;64199;48.578;-4.520;2023-05-19T08:31:24;0.90;;;0.85;;
75614;SDS011;64199;48.578;-4.520;2023-05-19T08:33:50;1.98;;;0.70;;
75614;SDS011;64199;48.578;-4.520;2023-05-19T08:36:16;2.50;;;0.70;;
75614;SDS011;64199;48.578;-4.520;2023-05-19T08:38:42;3.25;;;0.70;;
75614;SDS011;64199;48.578;-4.520;2023-05-19T08:41:09;1.10;;;0.82;;
75614;SDS011;64199;48.578;-4.520;2023-05-19T08:43:35;0.80;;;0.70;;
75614;SDS011;64199;48.578;-4.520;2023-05-19T08:46:01;0.73;;;0.50;;
75614;SDS011;64199;48.578;-4.520;2023-05-19T08:48:29;0.68;;;0.60;;
75614;SDS011;64199;48.578;-4.520;2023-05-19T08:53:47;1.15;;;0.80;;
75614;SDS011;64199;48.578;-4.520;2023-05-19T08:56:20;0.88;;;0.65;;
75614;SDS011;64199;48.578;-4.520;2023-05-19T08:58:49;1.23;;;0.77;;
75614;SDS011;64199;48.578;-4.520;2023-05-19T09:01:15;0.52;;;0.52;;
75614;SDS011;64199;48.578;-4.520;2023-05-19T09:03:42;0.63;;;0.60;;
75614;SDS011;64199;48.578;-4.520;2023-05-19T09:06:09;1.52;;;0.82;;
75614;SDS011;64199;48.578;-4.520;2023-05-19T09:08:38;2.28;;;0.80;;
75614;SDS011;64199;48.578;-4.520;2023-05-19T09:11:06;3.03;;;0.75;;
75614;SDS011;64199;48.578;-4.520;2023-05-19T09:13:35;1.40;;;0.80;;
75614;SDS011;64199;48.578;-4.520;2023-05-19T09:16:01;1.65;;;0.85;;
75614;SDS011;64199;48.578;-4.520;2023-05-19T09:18:27;1.38;;;0.57;;
75614;SDS011;64199;48.578;-4.520;2023-05-19T09:20:57;1.77;;;0.70;;
75614;SDS011;64199;48.578;-4.520;2023-05-19T09:23:27;1.83;;;0.80;;
75614;SDS011;64199;48.578;-4.520;2023-05-19T09:25:54;1.93;;;0.70;;
75614;SDS011;64199;48.578;-4.520;2023-05-19T09:30:57;2.20;;;0.50;;
75614;SDS011;64199;48.578;-4.520;2023-05-19T09:33:32;1.17;;;0.68;;
75614;SDS011;64199;48.578;-4.520;2023-05-19T09:36:02;1.05;;;0.60;;
75614;SDS011;64199;48.578;-4.520;2023-05-19T09:38:36;2.30;;;0.82;;
75614;SDS011;64199;48.578;-4.520;2023-05-19T09:41:03;0.85;;;0.60;;
75614;SDS011;64199;48.578;-4.520;2023-05-19T09:43:31;1.23;;;0.80;;
75614;SDS011;64199;48.578;-4.520;2023-05-19T09:48:30;2.00;;;0.70;;
75614;SDS011;64199;48.578;-4.520;2023-05-19T09:50:56;0.40;;;0.40;;
75614;SDS011;64199;48.578;-4.520;2023-05-19T09:53:24;1.05;;;0.63;;
75614;SDS011;64199;48.578;-4.520;2023-05-19T09:55:50;0.65;;;0.65;;
75614;SDS011;64199;48.578;-4.520;2023-05-19T09:58:23;0.60;;;0.57;;
75614;SDS011;64199;48.578;-4.520;2023-05-19T10:00:50;0.88;;;0.60;;
75614;SDS011;64199;48.578;-4.520;2023-05-19T10:03:19;0.95;;;0.70;;
75614;SDS011;64199;48.578;-4.520;2023-05-19T10:05:46;3.53;;;0.63;;
75614;SDS011;64199;48.578;-4.520;2023-05-19T10:08:13;0.80;;;0.63;;
75614;SDS011;64199;48.578;-4.520;2023-05-19T10:10:42;1.85;;;0.65;;
75614;SDS011;64199;48.578;-4.520;2023-05-19T10:13:11;0.55;;;0.45;;
75614;SDS011;64199;48.578;-4.520;2023-05-19T10:15:37;1.08;;;0.70;;
75614;SDS011;64199;48.578;-4.520;2023-05-19T10:18:09;1.25;;;0.60;;
75614;SDS011;64199;48.578;-4.520;2023-05-19T10:20:37;0.70;;;0.60;;
75614;SDS011;64199;48.578;-4.520;2023-05-19T10:23:04;2.58;;;0.50;;
75614;SDS011;64199;48.578;-4.520;2023-05-19T10:25:32;1.07;;;0.80;;
75614;SDS011;64199;48.578;-4.520;2023-05-19T10:28:03;1.23;;;0.57;;
75614;SDS011;64199;48.578;-4.520;2023-05-19T10:30:39;1.27;;;0.80;;
75614;SDS011;64199;48.578;-4.520;2023-05-19T10:33:11;3.47;;;0.75;;
75614;SDS011;64199;48.578;-4.520;2023-05-19T10:38:23;0.75;;;0.63;;
75614;SDS011;64199;48.578;-4.520;2023-05-19T10:46:16;1.42;;;0.60;;
75614;SDS011;64199;48.578;-4.520;2023-05-19T10:48:43;2.95;;;0.73;;
75614;SDS011;64199;48.578;-4.520;2023-05-19T10:51:10;1.50;;;0.80;;
75614;SDS011;64199;48.578;-4.520;2023-05-19T10:53:39;1.65;;;0.50;;
75614;SDS011;64199;48.578;-4.520;2023-05-19T10:56:10;2.78;;;0.57;;
75614;SDS011;64199;48.578;-4.520;2023-05-19T10:58:37;1.02;;;0.60;;
75614;SDS011;64199;48.578;-4.520;2023-05-19T11:01:12;0.60;;;0.60;;
75614;SDS011;64199;48.578;-4.520;2023-05-19T11:06:20;0.63;;;0.63;;
75614;SDS011;64199;48.578;-4.520;2023-05-19T11:11:50;0.73;;;0.73;;
75614;SDS011;64199;48.578;-4.520;2023-05-19T11:14:22;0.90;;;0.60;;
75614;SDS011;64199;48.578;-4.520;2023-05-19T11:16:51;0.88;;;0.60;;
75614;SDS011;64199;48.578;-4.520;2023-05-19T11:22:08;0.80;;;0.60;;
75614;SDS011;64199;48.578;-4.520;2023-05-19T11:24:36;0.80;;;0.73;;
75614;SDS011;64199;48.578;-4.520;2023-05-19T11:27:27;1.13;;;0.73;;
75614;SDS011;64199;48.578;-4.520;2023-05-19T11:30:01;3.17;;;0.88;;
75614;SDS011;64199;48.578;-4.520;2023-05-19T11:32:38;0.95;;;0.75;;
75614;SDS011;64199;48.578;-4.520;2023-05-19T11:35:06;1.02;;;0.70;;
75614;SDS011;64199;48.578;-4.520;2023-05-19T11:37:35;1.10;;;0.73;;
75614;SDS011;64199;48.578;-4.520;2023-05-19T11:40:04;1.15;;;0.85;;
75614;SDS011;64199;48.578;-4.520;2023-05-19T11:42:34;0.90;;;0.60;;
75614;SDS011;64199;48.578;-4.520;2023-05-19T11:45:01;1.27;;;0.80;;
75614;SDS011;64199;48.578;-4.520;2023-05-19T11:47:38;0.88;;;0.77;;
75614;SDS011;64199;48.578;-4.520;2023-05-19T11:50:04;1.95;;;0.95;;
75614;SDS011;64199;48.578;-4.520;2023-05-19T11:52:35;1.17;;;0.65;;
75614;SDS011;64199;48.578;-4.520;2023-05-19T11:55:01;1.05;;;0.77;;
75614;SDS011;64199;48.578;-4.520;2023-05-19T11:57:27;0.98;;;0.77;;
75614;SDS011;64199;48.578;-4.520;2023-05-19T11:59:53;0.88;;;0.70;;
75614;SDS011;64199;48.578;-4.520;2023-05-19T12:02:21;2.45;;;0.80;;
75614;SDS011;64199;48.578;-4.520;2023-05-19T12:04:58;3.03;;;0.70;;
75614;SDS011;64199;48.578;-4.520;2023-05-19T12:07:29;1.08;;;0.68;;
75614;SDS011;64199;48.578;-4.520;2023-05-19T12:09:55;1.00;;;0.73;;
75614;SDS011;64199;48.578;-4.520;2023-05-19T12:12:21;1.38;;;0.82;;
75614;SDS011;64199;48.578;-4.520;2023-05-19T12:14:49;0.65;;;0.65;;
75614;SDS011;64199;48.578;-4.520;2023-05-19T12:17:22;1.10;;;0.95;;
75614;SDS011;64199;48.578;-4.520;2023-05-19T12:19:51;0.70;;;0.70;;
75614;SDS011;64199;48.578;-4.520;2023-05-19T12:22:18;1.35;;;0.80;;
75614;SDS011;64199;48.578;-4.520;2023-05-19T12:24:44;0.80;;;0.70;;
75614;SDS011;64199;48.578;-4.520;2023-05-19T12:29:54;0.80;;;0.80;;
75614;SDS011;64199;48.578;-4.520;2023-05-19T12:32:26;3.08;;;0.90;;
75614;SDS011;64199;48.578;-4.520;2023-05-19T12:34:55;0.80;;;0.60;;
75614;SDS011;64199;48.578;-4.520;2023-05-19T12:37:24;0.70;;;0.70;;
75614;SDS011;64199;48.578;-4.520;2023-05-19T12:39:51;1.08;;;0.80;;
75614;SDS011;64199;48.578;-4.520;2023-05-19T12:42:17;0.80;;;0.70;;
75614;SDS011;64199;48.578;-4.520;2023-05-19T12:44:47;1.05;;;0.80;;
75614;SDS011;64199;48.578;-4.520;2023-05-19T12:47:33;1.40;;;0.82;;
75614;SDS011;64199;48.578;-4.520;2023-05-19T12:50:06;0.82;;;0.65;;
75614;SDS011;64199;48.578;-4.520;2023-05-19T12:52:39;1.05;;;0.80;;
75614;SDS011;64199;48.578;-4.520;2023-05-19T12:55:05;2.65;;;0.80;;
75614;SDS011;64199;48.578;-4.520;2023-05-19T12:57:39;0.95;;;0.70;;
75614;SDS011;64199;48.578;-4.520;2023-05-19T13:00:07;0.90;;;0.75;;
75614;SDS011;64199;48.578;-4.520;2023-05-19T13:05:39;3.30;;;0.90;;
75614;SDS011;64199;48.578;-4.520;2023-05-19T13:08:20;0.82;;;0.82;;
75614;SDS011;64199;48.578;-4.520;2023-05-19T13:10:48;3.33;;;0.70;;
75614;SDS011;64199;48.578;-4.520;2023-05-19T13:13:14;3.40;;;0.90;;
75614;SDS011;64199;48.578;-4.520;2023-05-19T13:15:42;8.75;;;1.23;;
75614;SDS011;64199;48.578;-4.520;2023-05-19T13:18:14;7.82;;;1.23;;
75614;SDS011;64199;48.578;-4.520;2023-05-19T13:20:41;8.77;;;1.55;;
75614;SDS011;64199;48.578;-4.520;2023-05-19T13:23:17;6.97;;;1.20;;
75614;SDS011;64199;48.578;-4.520;2023-05-19T13:25:46;11.68;;;1.48;;
75614;SDS011;64199;48.578;-4.520;2023-05-19T13:28:15;6.43;;;1.23;;
75614;SDS011;64199;48.578;-4.520;2023-05-19T13:30:41;5.65;;;1.30;;
75614;SDS011;64199;48.578;-4.520;2023-05-19T13:33:15;10.50;;;1.50;;
75614;SDS011;64199;48.578;-4.520;2023-05-19T13:35:41;6.18;;;1.30;;
75614;SDS011;64199;48.578;-4.520;2023-05-19T13:38:11;6.03;;;1.50;;
75614;SDS011;64199;48.578;-4.520;2023-05-19T13:40:40;9.40;;;1.60;;
75614;SDS011;64199;48.578;-4.520;2023-05-19T13:43:06;2.70;;;1.20;;
75614;SDS011;64199;48.578;-4.520;2023-05-19T13:45:34;3.33;;;1.60;;
75614;SDS011;64199;48.578;-4.520;2023-05-19T13:48:08;6.10;;;1.30;;
75614;SDS011;64199;48.578;-4.520;2023-05-19T13:50:35;8.73;;;1.40;;
75614;SDS011;64199;48.578;-4.520;2023-05-19T13:53:04;5.05;;;1.40;;
75614;SDS011;64199;48.578;-4.520;2023-05-19T13:55:31;6.18;;;1.23;;
75614;SDS011;64199;48.578;-4.520;2023-05-19T13:57:57;4.05;;;1.30;;
75614;SDS011;64199;48.578;-4.520;2023-05-19T14:00:23;6.53;;;1.30;;
75614;SDS011;64199;48.578;-4.520;2023-05-19T14:02:49;4.18;;;1.15;;
75614;SDS011;64199;48.578;-4.520;2023-05-19T14:05:30;3.67;;;1.33;;
75614;SDS011;64199;48.578;-4.520;2023-05-19T14:07:59;2.70;;;1.42;;
75614;SDS011;64199;48.578;-4.520;2023-05-19T14:10:27;4.07;;;1.10;;
75614;SDS011;64199;48.578;-4.520;2023-05-19T14:12:56;2.65;;;1.10;;
75614;SDS011;64199;48.578;-4.520;2023-05-19T14:15:25;4.70;;;1.30;;
75614;SDS011;64199;48.578;-4.520;2023-05-19T14:17:52;1.75;;;1.23;;
75614;SDS011;64199;48.578;-4.520;2023-05-19T14:20:22;2.08;;;1.10;;
75614;SDS011;64199;48.578;-4.520;2023-05-19T14:22:49;1.45;;;1.00;;
75614;SDS011;64199;48.578;-4.520;2023-05-19T14:25:15;10.65;;;1.30;;
75614;SDS011;64199;48.578;-4.520;2023-05-19T14:27:41;3.38;;;1.17;;
75614;SDS011;64199;48.578;-4.520;2023-05-19T14:30:10;4.95;;;1.23;;
75614;SDS011;64199;48.578;-4.520;2023-05-19T14:32:39;4.25;;;1.23;;
75614;SDS011;64199;48.578;-4.520;2023-05-19T14:35:05;1.55;;;1.00;;
75614;SDS011;64199;48.578;-4.520;2023-05-19T14:37:31;4.10;;;1.40;;
75614;SDS011;64199;48.578;-4.520;2023-05-19T14:40:00;1.55;;;1.33;;
75614;SDS011;64199;48.578;-4.520;2023-05-19T14:42:32;2.10;;;0.93;;
75614;SDS011;64199;48.578;-4.520;2023-05-19T14:45:07;1.20;;;1.10;;
75614;SDS011;64199;48.578;-4.520;2023-05-19T14:47:38;6.00;;;1.10;;
75614;SDS011;64199;48.578;-4.520;2023-05-19T14:50:04;1.85;;;1.08;;
75614;SDS011;64199;48.578;-4.520;2023-05-19T14:52:31;3.90;;;1.13;;
75614;SDS011;64199;48.578;-4.520;2023-05-19T14:54:57;2.25;;;1.00;;
75614;SDS011;64199;48.578;-4.520;2023-05-19T14:57:22;1.67;;;1.20;;
75614;SDS011;64199;48.578;-4.520;2023-05-19T14:59:48;2.10;;;1.20;;
75614;SDS011;64199;48.578;-4.520;2023-05-19T15:02:14;2.55;;;1.25;;
75614;SDS011;64199;48.578;-4.520;2023-05-19T15:04:40;3.22;;;1.23;;
75614;SDS011;64199;48.578;-4.520;2023-05-19T15:07:10;2.75;;;1.02;;
75614;SDS011;64199;48.578;-4.520;2023-05-19T15:09:39;4.00;;;1.88;;
75614;SDS011;64199;48.578;-4.520;2023-05-19T15:12:08;1.85;;;1.25;;
75614;SDS011;64199;48.578;-4.520;2023-05-19T15:14:34;3.13;;;1.15;;
75614;SDS011;64199;48.578;-4.520;2023-05-19T15:17:00;2.25;;;1.20;;
75614;SDS011;64199;48.578;-4.520;2023-05-19T15:19:26;1.70;;;1.33;;